createdAt,value
2023-04-08T00:02:00.170Z,40.42
2023-04-08T00:04:27.207Z,41.78
2023-04-08T00:06:54.024Z,40.13
2023-04-08T00:09:21.134Z,39.78
2023-04-08T00:11:47.936Z,40.83
2023-04-08T00:14:14.675Z,40.25
2023-04-08T00:16:41.282Z,40.50
2023-04-08T00:19:08.731Z,41.53
2023-04-08T00:21:36.112Z,39.42
2023-04-08T00:24:02.797Z,43.83
2023-04-08T00:26:29.447Z,42.35
2023-04-08T00:28:56.119Z,41.40
2023-04-08T00:31:22.809Z,43.22
2023-04-08T00:33:50.734Z,41.60
2023-04-08T00:36:17.665Z,42.92
2023-04-08T00:38:44.349Z,42.70
2023-04-08T00:41:11.264Z,43.50
2023-04-08T00:43:40.792Z,42.20
2023-04-08T00:46:07.576Z,43.72
2023-04-08T00:48:34.481Z,43.00
2023-04-08T00:51:02.099Z,43.70
2023-04-08T00:53:31.536Z,41.17
2023-04-08T00:55:59.928Z,42.83
2023-04-08T00:58:27.196Z,42.13
2023-04-08T01:01:04.480Z,43.55
2023-04-08T01:03:50.541Z,43.92
2023-04-08T01:06:42.424Z,41.75
2023-04-08T01:09:10.669Z,42.40
2023-04-08T01:11:38.824Z,43.47
2023-04-08T01:14:07.328Z,44.33
2023-04-08T01:16:35.096Z,42.50
2023-04-08T01:19:04.932Z,43.95
2023-04-08T01:21:31.773Z,42.67
2023-04-08T01:24:10.137Z,47.20
2023-04-08T01:26:37.451Z,45.20
2023-04-08T01:29:12.924Z,48.20
2023-04-08T01:31:41.518Z,49.45
2023-04-08T01:34:09.062Z,47.58
2023-04-08T01:36:37.533Z,45.25
2023-04-08T01:39:05.932Z,44.67
2023-04-08T01:41:34.323Z,44.80
2023-04-08T01:44:01.110Z,48.30
2023-04-08T01:46:30.572Z,45.75
2023-04-08T01:48:57.695Z,44.17
2023-04-08T01:51:27.599Z,47.03
2023-04-08T01:53:54.371Z,45.55
2023-04-08T01:56:22.447Z,49.90
2023-04-08T01:58:52.635Z,45.75
2023-04-08T02:01:21.429Z,47.25
2023-04-08T02:03:52.223Z,46.95
2023-04-08T02:06:19.102Z,46.13
2023-04-08T02:08:46.028Z,47.22
2023-04-08T02:11:13.318Z,45.63
2023-04-08T02:13:40.333Z,46.75
2023-04-08T02:16:37.308Z,47.72
2023-04-08T02:19:10.554Z,49.30
2023-04-08T02:21:50.627Z,46.58
2023-04-08T02:24:17.867Z,45.58
2023-04-08T02:26:45.661Z,48.75
2023-04-08T02:29:13.690Z,51.08
2023-04-08T02:31:44.872Z,47.70
2023-04-08T02:34:22.060Z,46.50
2023-04-08T02:36:49.155Z,46.42
2023-04-08T02:39:16.602Z,48.42
2023-04-08T02:41:43.218Z,49.25
2023-04-08T02:44:10.457Z,48.75
2023-04-08T02:46:40.908Z,49.22
2023-04-08T02:49:07.608Z,50.47
2023-04-08T02:51:37.192Z,46.83
2023-04-08T02:54:04.925Z,50.20
2023-04-08T02:56:32.443Z,47.53
2023-04-08T02:59:02.972Z,50.80
2023-04-08T03:01:31.370Z,48.47
2023-04-08T03:03:58.334Z,50.15
2023-04-08T03:06:24.931Z,55.10
2023-04-08T03:08:51.955Z,51.30
2023-04-08T03:11:21.531Z,51.88
2023-04-08T03:13:48.178Z,51.08
2023-04-08T03:16:15.257Z,49.63
2023-04-08T03:18:42.220Z,51.53
2023-04-08T03:21:09.483Z,52.25
2023-04-08T03:23:36.858Z,48.72
2023-04-08T03:26:03.803Z,52.33
2023-04-08T03:28:31.199Z,46.05
2023-04-08T03:30:57.884Z,49.40
2023-04-08T03:33:24.799Z,47.67
2023-04-08T03:35:51.563Z,47.97
2023-04-08T03:38:18.502Z,44.40
2023-04-08T03:40:45.734Z,43.72
2023-04-08T03:43:14.278Z,44.13
2023-04-08T03:45:41.356Z,41.95
2023-04-08T03:48:08.427Z,46.45
2023-04-08T03:50:35.750Z,43.10
2023-04-08T03:53:02.290Z,48.33
2023-04-08T03:55:29.068Z,52.60
2023-04-08T03:57:55.861Z,52.35
2023-04-08T04:00:22.706Z,53.83
2023-04-08T04:02:49.466Z,50.58
2023-04-08T04:05:18.921Z,49.63
2023-04-08T04:07:45.661Z,50.97
2023-04-08T04:10:12.291Z,50.80
2023-04-08T04:12:38.865Z,50.95
2023-04-08T04:15:06.207Z,56.65
2023-04-08T04:17:32.999Z,53.42
2023-04-08T04:19:59.710Z,52.13
2023-04-08T04:22:26.221Z,47.65
2023-04-08T04:24:52.777Z,48.72
2023-04-08T04:27:19.377Z,54.53
2023-04-08T04:29:46.291Z,58.95
2023-04-08T04:32:13.174Z,57.15
2023-04-08T04:34:39.926Z,55.25
2023-04-08T04:37:06.563Z,57.45
2023-04-08T04:39:33.149Z,54.83
2023-04-08T04:41:59.853Z,62.22
2023-04-08T04:44:27.148Z,59.47
2023-04-08T04:46:53.829Z,59.75
2023-04-08T04:49:20.636Z,58.05
2023-04-08T04:51:47.209Z,61.75
2023-04-08T04:54:13.941Z,62.15
2023-04-08T04:56:40.813Z,62.65
2023-04-08T04:59:08.680Z,60.30
2023-04-08T05:01:35.428Z,64.35
2023-04-08T05:04:02.015Z,61.28
2023-04-08T05:06:28.619Z,60.65
2023-04-08T05:08:55.605Z,61.03
2023-04-08T05:11:22.227Z,63.47
2023-04-08T05:13:48.896Z,61.08
2023-04-08T05:16:16.496Z,56.03
2023-04-08T05:18:43.221Z,63.58
2023-04-08T05:21:09.876Z,60.35
2023-04-08T05:23:36.555Z,57.47
2023-04-08T05:26:03.338Z,61.22
2023-04-08T05:28:29.952Z,61.80
2023-04-08T05:30:56.688Z,59.97
2023-04-08T05:33:23.668Z,62.00
2023-04-08T05:35:50.515Z,63.22
2023-04-08T05:38:17.333Z,61.83
2023-04-08T05:40:43.900Z,61.10
2023-04-08T05:43:10.562Z,61.83
2023-04-08T05:45:37.413Z,59.97
2023-04-08T05:48:04.391Z,62.60
2023-04-08T05:50:31.484Z,61.15
2023-04-08T05:52:58.100Z,61.38
2023-04-08T05:55:24.740Z,62.78
2023-04-08T05:57:51.434Z,62.30
2023-04-08T06:00:18.456Z,59.20
2023-04-08T06:02:45.359Z,62.28
2023-04-08T06:05:12.079Z,63.42
2023-04-08T06:07:38.900Z,62.58
2023-04-08T06:10:07.067Z,63.13
2023-04-08T06:12:36.664Z,61.17
2023-04-08T06:15:04.373Z,63.13
2023-04-08T06:17:34.687Z,63.92
2023-04-08T06:20:03.540Z,65.38
2023-04-08T06:22:31.039Z,66.00
2023-04-08T06:24:57.679Z,64.18
2023-04-08T06:27:24.431Z,66.75
2023-04-08T06:29:52.022Z,60.13
2023-04-08T06:32:18.953Z,62.35
2023-04-08T06:34:46.119Z,60.25
2023-04-08T06:37:12.831Z,57.00
2023-04-08T06:39:39.420Z,55.63
2023-04-08T06:42:06.555Z,50.67
2023-04-08T06:44:45.690Z,48.95
2023-04-08T06:47:12.214Z,48.30
2023-04-08T06:49:38.882Z,46.45
2023-04-08T06:52:06.966Z,46.08
2023-04-08T06:54:33.568Z,46.97
2023-04-08T06:57:00.383Z,42.10
2023-04-08T06:59:26.969Z,41.83
2023-04-08T07:01:53.823Z,40.47
2023-04-08T07:04:20.924Z,41.22
2023-04-08T07:06:47.583Z,41.67
2023-04-08T07:09:14.205Z,39.00
2023-04-08T07:11:40.942Z,37.97
2023-04-08T07:14:07.525Z,37.03
2023-04-08T07:16:34.116Z,40.38
2023-04-08T07:19:00.684Z,37.28
2023-04-08T07:21:27.417Z,36.70
2023-04-08T07:23:54.062Z,36.40
2023-04-08T07:26:20.626Z,37.35
2023-04-08T07:28:47.245Z,37.13
2023-04-08T07:31:16.260Z,37.40
2023-04-08T07:33:43.361Z,36.63
2023-04-08T07:36:11.368Z,37.53
2023-04-08T07:38:41.061Z,35.50
2023-04-08T07:41:07.627Z,37.30
2023-04-08T07:43:34.561Z,36.42
2023-04-08T07:46:04.741Z,33.40
2023-04-08T07:48:32.114Z,31.92
2023-04-08T07:51:08.216Z,30.48
2023-04-08T07:53:37.436Z,30.48
2023-04-08T07:56:11.368Z,30.92
2023-04-08T07:58:38.703Z,28.95
2023-04-08T08:01:05.521Z,29.65
2023-04-08T08:03:48.525Z,29.98
2023-04-08T08:06:15.925Z,27.42
2023-04-08T08:08:42.773Z,29.00
2023-04-08T08:11:09.577Z,27.42
2023-04-08T08:13:38.730Z,28.10
2023-04-08T08:16:09.529Z,28.00
2023-04-08T08:18:37.041Z,28.40
2023-04-08T08:21:03.766Z,29.73
2023-04-08T08:23:30.502Z,27.27
2023-04-08T08:26:04.604Z,26.40
2023-04-08T08:28:31.460Z,25.75
2023-04-08T08:30:58.507Z,26.80
2023-04-08T08:33:26.041Z,25.98
2023-04-08T08:35:52.784Z,27.60
2023-04-08T08:38:19.663Z,27.30
2023-04-08T08:40:46.259Z,27.92
2023-04-08T08:43:12.930Z,30.38
2023-04-08T08:45:42.852Z,31.10
2023-04-08T08:48:09.628Z,31.48
2023-04-08T08:50:36.363Z,31.85
2023-04-08T08:53:03.618Z,35.22
2023-04-08T08:56:00.317Z,32.97
2023-04-08T08:58:21.511Z,37.55
2023-04-08T09:00:48.088Z,37.47
2023-04-08T09:03:21.932Z,37.47
2023-04-08T09:05:56.075Z,38.45
2023-04-08T09:08:32.424Z,39.33
2023-04-08T09:11:16.131Z,41.00
2023-04-08T09:13:45.004Z,41.38
2023-04-08T09:16:17.923Z,42.53
2023-04-08T09:18:46.025Z,42.05
2023-04-08T09:21:17.480Z,41.58
2023-04-08T09:23:44.969Z,42.80
2023-04-08T09:26:16.439Z,40.80
2023-04-08T09:28:44.847Z,42.47
2023-04-08T09:31:25.473Z,41.53
2023-04-08T09:33:57.652Z,38.20
2023-04-08T09:36:26.488Z,39.50
2023-04-08T09:38:54.915Z,38.08
2023-04-08T09:41:23.555Z,38.60
2023-04-08T09:43:52.493Z,36.78
2023-04-08T09:46:26.546Z,37.17
2023-04-08T09:48:59.169Z,38.22
2023-04-08T09:51:26.757Z,38.65
2023-04-08T09:54:00.668Z,37.72
2023-04-08T09:56:31.730Z,35.70
2023-04-08T09:59:00.476Z,36.53
2023-04-08T10:01:40.080Z,39.35
2023-04-08T10:04:16.077Z,35.25
2023-04-08T10:06:43.125Z,35.65
2023-04-08T10:09:10.476Z,36.30
2023-04-08T10:11:37.349Z,33.45
2023-04-08T10:14:04.036Z,33.33
2023-04-08T10:16:31.135Z,31.60
2023-04-08T10:18:58.079Z,30.05
2023-04-08T10:21:38.772Z,31.80
2023-04-08T10:24:11.621Z,43.53
2023-04-08T10:26:43.239Z,39.30
2023-04-08T10:29:19.158Z,40.53
2023-04-08T10:31:47.381Z,54.17
2023-04-08T10:34:22.697Z,37.05
2023-04-08T10:36:49.854Z,33.50
2023-04-08T10:39:16.936Z,39.85
2023-04-08T10:41:44.480Z,48.25
2023-04-08T10:44:21.441Z,37.45
2023-04-08T10:46:50.550Z,44.83
2023-04-08T10:49:17.664Z,39.40
2023-04-08T10:51:44.843Z,37.20
2023-04-08T10:54:20.508Z,36.22
2023-04-08T10:56:52.325Z,39.30
2023-04-08T10:59:32.818Z,40.03
2023-04-08T11:02:01.105Z,41.65
2023-04-08T11:04:28.091Z,42.08
2023-04-08T11:06:54.855Z,41.53
2023-04-08T11:09:21.564Z,40.13
2023-04-08T11:11:48.504Z,46.22
2023-04-08T11:14:19.672Z,46.05
2023-04-08T11:16:46.338Z,45.80
2023-04-08T11:19:13.741Z,47.65
2023-04-08T11:21:42.354Z,42.63
2023-04-08T11:24:13.349Z,41.40
2023-04-08T11:26:40.695Z,42.20
2023-04-08T11:29:12.744Z,41.30
2023-04-08T11:31:39.509Z,42.35
2023-04-08T11:34:06.256Z,42.20
2023-04-08T11:36:35.261Z,40.40
2023-04-08T11:39:07.062Z,39.78
2023-04-08T11:41:38.253Z,36.20
2023-04-08T11:44:17.425Z,40.17
2023-04-08T11:46:55.251Z,38.33
2023-04-08T11:49:22.012Z,35.17
2023-04-08T11:54:43.770Z,36.15
2023-04-08T11:57:10.561Z,37.22
2023-04-08T11:59:37.268Z,35.70
2023-04-08T12:02:06.906Z,33.40
2023-04-08T12:04:36.106Z,33.55
2023-04-08T12:07:02.821Z,32.30
2023-04-08T12:09:29.454Z,32.63
2023-04-08T12:11:56.790Z,30.60
2023-04-08T12:14:26.980Z,30.50
2023-04-08T12:16:55.214Z,29.45
2023-04-08T12:19:22.089Z,27.70
2023-04-08T12:21:48.714Z,26.83
2023-04-08T12:24:15.465Z,27.65
2023-04-08T12:26:42.102Z,26.25
2023-04-08T12:29:11.610Z,26.05
2023-04-08T12:31:38.304Z,26.48
2023-04-08T12:34:05.015Z,27.25
2023-04-08T12:36:31.887Z,24.15
2023-04-08T12:38:58.595Z,24.40
2023-04-08T12:41:25.211Z,23.13
2023-04-08T12:43:59.070Z,21.00
2023-04-08T12:46:25.871Z,21.75
2023-04-08T12:49:03.279Z,19.13
2023-04-08T12:51:32.192Z,16.80
2023-04-08T12:54:04.960Z,14.32
2023-04-08T12:56:32.341Z,15.05
2023-04-08T12:58:59.790Z,22.95
2023-04-08T13:01:26.560Z,15.10
2023-04-08T13:03:54.215Z,13.60
2023-04-08T13:06:20.924Z,10.68
2023-04-08T13:08:47.779Z,10.80
2023-04-08T13:11:14.655Z,10.60
2023-04-08T13:13:41.603Z,11.07
2023-04-08T13:16:17.836Z,11.75
2023-04-08T13:18:44.856Z,10.73
2023-04-08T13:21:11.491Z,10.85
2023-04-08T13:23:38.895Z,10.40
2023-04-08T13:26:06.600Z,10.35
2023-04-08T13:28:35.402Z,11.45
2023-04-08T13:31:05.672Z,10.48
2023-04-08T13:33:32.366Z,11.13
2023-04-08T13:35:59.091Z,11.48
2023-04-08T13:38:26.093Z,10.38
2023-04-08T13:40:53.545Z,11.77
2023-04-08T13:43:20.582Z,12.15
2023-04-08T13:45:47.655Z,11.73
2023-04-08T13:48:14.411Z,11.25
2023-04-08T13:50:42.274Z,11.77
2023-04-08T13:53:08.847Z,11.98
2023-04-08T13:55:35.776Z,11.98
2023-04-08T13:58:03.601Z,11.75
2023-04-08T14:00:33.596Z,11.00
2023-04-08T14:03:00.550Z,11.20
2023-04-08T14:05:27.223Z,11.25
2023-04-08T14:07:53.965Z,10.95
2023-04-08T14:10:21.032Z,10.85
2023-04-08T14:12:47.739Z,10.30
2023-04-08T14:15:14.529Z,9.93
2023-04-08T14:17:42.127Z,11.13
2023-04-08T14:20:09.141Z,10.75
2023-04-08T14:22:36.010Z,11.40
2023-04-08T14:25:02.968Z,10.90
2023-04-08T14:27:29.602Z,13.25
2023-04-08T14:29:56.387Z,12.25
2023-04-08T14:32:23.045Z,11.60
2023-04-08T14:34:49.653Z,10.82
2023-04-08T14:37:17.780Z,12.07
2023-04-08T14:39:44.702Z,11.93
2023-04-08T14:42:11.310Z,12.45
2023-04-08T14:44:37.851Z,11.27
2023-04-08T14:47:04.442Z,11.90
2023-04-08T14:49:31.035Z,10.75
2023-04-08T14:51:57.622Z,13.05
2023-04-08T14:54:24.307Z,13.98
2023-04-08T14:56:50.867Z,12.57
2023-04-08T14:59:18.137Z,13.50
2023-04-08T15:01:45.103Z,13.55
2023-04-08T15:04:11.958Z,12.50
2023-04-08T15:06:40.729Z,12.18
2023-04-08T15:09:07.455Z,11.27
2023-04-08T15:11:34.005Z,16.38
2023-04-08T15:14:00.659Z,16.65
2023-04-08T15:16:27.325Z,17.80
2023-04-08T15:18:54.937Z,17.35
2023-04-08T15:21:22.811Z,19.52
2023-04-08T15:23:49.566Z,18.08
2023-04-08T15:26:16.285Z,19.02
2023-04-08T15:28:43.274Z,19.42
2023-04-08T15:31:11.477Z,19.90
2023-04-08T15:33:41.426Z,19.38
2023-04-08T15:36:09.183Z,20.85
2023-04-08T15:38:36.303Z,20.55
2023-04-08T15:41:03.048Z,20.63
2023-04-08T15:43:30.448Z,21.10
2023-04-08T15:45:57.059Z,21.48
2023-04-08T15:48:23.641Z,21.05
2023-04-08T15:50:50.282Z,22.30
2023-04-08T15:53:16.937Z,21.80
2023-04-08T15:55:43.465Z,22.90
2023-04-08T15:58:10.396Z,23.05
2023-04-08T16:00:37.508Z,23.30
2023-04-08T16:03:05.419Z,25.30
2023-04-08T16:05:34.210Z,25.85
2023-04-08T16:08:00.992Z,26.85
2023-04-08T16:10:27.632Z,27.00
2023-04-08T16:12:54.211Z,28.10
2023-04-08T16:15:20.827Z,28.25
2023-04-08T16:17:53.692Z,29.90
2023-04-08T16:20:22.131Z,29.63
2023-04-08T16:22:50.201Z,27.88
2023-04-08T16:25:17.777Z,27.42
2023-04-08T16:27:44.523Z,25.95
2023-04-08T16:30:11.936Z,25.08
2023-04-08T16:32:38.671Z,24.85
2023-04-08T16:35:06.005Z,24.48
2023-04-08T16:37:33.460Z,20.75
2023-04-08T16:40:03.627Z,21.02
2023-04-08T16:42:30.700Z,22.13
2023-04-08T16:44:58.043Z,22.50
2023-04-08T16:47:25.090Z,22.80
2023-04-08T16:49:52.857Z,23.00
2023-04-08T16:52:19.460Z,23.80
2023-04-08T16:54:46.220Z,24.55
2023-04-08T16:57:13.568Z,23.48
2023-04-08T16:59:40.519Z,24.45
2023-04-08T17:02:08.129Z,23.33
2023-04-08T17:04:34.927Z,24.17
2023-04-08T17:07:01.650Z,23.67
2023-04-08T17:09:28.780Z,24.08
2023-04-08T17:11:56.077Z,22.40
2023-04-08T17:14:22.946Z,25.20
2023-04-08T17:16:49.785Z,24.13
2023-04-08T17:19:16.761Z,23.48
2023-04-08T17:21:46.570Z,23.92
2023-04-08T17:24:13.730Z,21.42
2023-04-08T17:26:43.561Z,21.60
2023-04-08T17:29:10.713Z,21.33
2023-04-08T17:31:37.778Z,22.73
2023-04-08T17:34:04.864Z,22.98
2023-04-08T17:36:31.954Z,24.05
2023-04-08T17:38:58.773Z,22.45
2023-04-08T17:41:39.060Z,22.73
2023-04-08T17:44:06.719Z,22.02
2023-04-08T17:46:34.242Z,23.17
2023-04-08T17:49:01.972Z,24.85
2023-04-08T17:51:30.183Z,25.13
2023-04-08T17:53:56.809Z,24.92
2023-04-08T17:56:24.609Z,27.02
2023-04-08T17:58:51.527Z,29.08
2023-04-08T18:01:18.358Z,29.13
2023-04-08T18:03:45.293Z,28.85
2023-04-08T18:06:11.984Z,30.67
2023-04-08T18:08:38.791Z,29.35
2023-04-08T18:11:09.553Z,32.50
2023-04-08T18:13:36.393Z,33.00
2023-04-08T18:16:06.679Z,33.65
2023-04-08T18:18:33.517Z,33.97
2023-04-08T18:21:07.409Z,34.97
2023-04-08T18:23:34.069Z,35.47
2023-04-08T18:26:01.168Z,36.22
2023-04-08T18:28:31.416Z,35.72
2023-04-08T18:31:01.728Z,34.15
2023-04-08T18:33:28.469Z,33.35
2023-04-08T18:35:56.132Z,36.45
2023-04-08T18:38:24.526Z,33.72
2023-04-08T18:40:51.289Z,35.13
2023-04-08T18:43:18.008Z,35.95
2023-04-08T18:45:45.656Z,37.10
2023-04-08T18:48:12.402Z,36.42
2023-04-08T18:50:40.163Z,35.30
2023-04-08T18:53:06.850Z,33.80
2023-04-08T18:55:38.657Z,34.08
2023-04-08T18:58:06.515Z,33.20
2023-04-08T19:00:33.475Z,34.50
2023-04-08T19:03:03.702Z,34.05
2023-04-08T19:05:32.881Z,33.35
2023-04-08T19:08:03.700Z,33.15
2023-04-08T19:10:34.469Z,32.67
2023-04-08T19:13:06.050Z,22.95
2023-04-08T19:15:33.092Z,30.85
2023-04-08T19:18:01.085Z,29.60
2023-04-08T19:20:28.616Z,29.77
2023-04-08T19:22:55.967Z,27.77
2023-04-08T19:25:22.605Z,26.85
2023-04-08T19:27:49.871Z,27.70
2023-04-08T19:30:16.756Z,24.05
2023-04-08T19:32:43.516Z,24.48
2023-04-08T19:35:13.372Z,25.45
2023-04-08T19:37:40.411Z,24.80
2023-04-08T19:40:08.588Z,26.17
2023-04-08T19:42:35.421Z,25.17
2023-04-08T19:45:05.196Z,24.73
2023-04-08T19:47:32.178Z,25.50
2023-04-08T19:49:59.905Z,26.13
2023-04-08T19:52:26.830Z,25.80
2023-04-08T19:54:53.637Z,24.67
2023-04-08T19:57:20.624Z,24.77
2023-04-08T19:59:52.533Z,25.90
2023-04-08T20:02:24.837Z,24.60
2023-04-08T20:05:02.115Z,25.42
2023-04-08T20:07:32.856Z,24.67
2023-04-08T20:10:00.203Z,24.70
2023-04-08T20:12:30.485Z,24.67
2023-04-08T20:14:59.838Z,22.80
2023-04-08T20:17:33.171Z,24.83
2023-04-08T20:20:04.226Z,24.45
2023-04-08T20:22:32.619Z,24.65
2023-04-08T20:25:08.891Z,23.85
2023-04-08T20:27:40.287Z,23.58
2023-04-08T20:30:20.486Z,23.77
2023-04-08T20:32:47.203Z,23.25
2023-04-08T20:35:14.340Z,24.00
2023-04-08T20:37:42.052Z,23.10
2023-04-08T20:40:09.454Z,23.35
2023-04-08T20:42:36.585Z,23.27
2023-04-08T20:45:03.918Z,23.42
2023-04-08T20:47:31.361Z,23.42
2023-04-08T20:49:58.414Z,23.33
2023-04-08T20:52:25.580Z,23.58
2023-04-08T20:54:52.309Z,24.20
2023-04-08T20:57:19.499Z,24.27
2023-04-08T20:59:46.301Z,24.85
2023-04-08T21:02:14.086Z,24.00
2023-04-08T21:04:40.859Z,25.00
2023-04-08T21:07:07.503Z,24.48
2023-04-08T21:09:34.120Z,25.55
2023-04-08T21:12:07.406Z,26.48
2023-04-08T21:14:34.719Z,26.73
2023-04-08T21:17:01.584Z,29.00
2023-04-08T21:19:28.449Z,28.27
2023-04-08T21:21:55.192Z,29.50
2023-04-08T21:24:21.764Z,29.02
2023-04-08T21:26:48.408Z,29.13
2023-04-08T21:29:15.091Z,30.25
2023-04-08T21:31:42.181Z,29.65
2023-04-08T21:34:08.906Z,31.00
2023-04-08T21:36:35.775Z,28.20
2023-04-08T21:39:02.585Z,30.95
2023-04-08T21:41:30.591Z,30.83
2023-04-08T21:44:01.232Z,29.65
2023-04-08T21:46:28.285Z,31.58
2023-04-08T21:48:55.471Z,32.45
2023-04-08T21:51:22.278Z,32.22
2023-04-08T21:53:50.728Z,31.73
2023-04-08T21:56:18.325Z,32.17
2023-04-08T21:58:45.489Z,31.17
2023-04-08T22:01:12.243Z,31.23
2023-04-08T22:03:39.234Z,32.55
2023-04-08T22:06:09.692Z,31.25
2023-04-08T22:08:37.487Z,33.30
2023-04-08T22:11:08.764Z,33.33
2023-04-08T22:16:01.999Z,31.65
2023-04-08T22:18:28.623Z,33.15
2023-04-08T22:20:55.448Z,33.28
2023-04-08T22:23:22.024Z,34.40
2023-04-08T22:25:50.594Z,31.90
2023-04-08T22:28:18.013Z,33.30
2023-04-08T22:30:46.480Z,33.67
2023-04-08T22:33:13.402Z,33.78
2023-04-08T22:35:40.470Z,32.75
2023-04-08T22:38:07.098Z,34.50
2023-04-08T22:40:36.114Z,34.72
2023-04-08T22:43:03.414Z,36.70
2023-04-08T22:45:30.348Z,34.55
2023-04-08T22:47:57.105Z,31.30
2023-04-08T22:50:23.798Z,33.33
2023-04-08T22:52:50.446Z,32.58
2023-04-08T22:55:17.188Z,32.95
2023-04-08T22:57:43.919Z,33.45
2023-04-08T23:00:11.363Z,31.80
2023-04-08T23:02:38.065Z,29.98
2023-04-08T23:05:05.526Z,31.52
2023-04-08T23:07:32.421Z,31.70
2023-04-08T23:09:58.946Z,29.95
2023-04-08T23:12:25.728Z,31.23
2023-04-08T23:14:52.294Z,32.08
2023-04-08T23:17:18.993Z,31.42
2023-04-08T23:19:45.758Z,33.67
2023-04-08T23:22:12.337Z,33.90
2023-04-08T23:24:38.901Z,33.22
2023-04-08T23:27:05.625Z,32.92
2023-04-08T23:29:32.633Z,34.40
2023-04-08T23:31:59.388Z,34.95
2023-04-08T23:34:26.005Z,34.83
2023-04-08T23:36:52.532Z,35.45
2023-04-08T23:39:19.913Z,34.53
2023-04-08T23:41:46.544Z,35.70
2023-04-08T23:44:13.091Z,35.65
2023-04-08T23:46:39.768Z,35.90
2023-04-08T23:49:06.513Z,36.30
2023-04-08T23:51:33.120Z,35.05
2023-04-08T23:53:59.621Z,35.72
2023-04-08T23:56:26.192Z,35.88
2023-04-08T23:58:52.949Z,34.42
